Time;durP1;ratioP1;P1;durP2;ratioP2;P2;SDS_P1;SDS_P2;PMS_P1;PMS_P2;Temp;Humidity;BMP_temperature;BMP_pressure;BME280_temperature;BME280_humidity;BME280_pressure;Samples;Min_cycle;Max_cycle;Signal;HPM_P1;HPM_P2
2022/02/03 00:04:31;;;;;;;10.13;6.90;;;;;;;11.10;65.95;98122.91;5030913;28;20420;-70
2022/02/03 00:07:02;;;;;;;8.63;6.47;;;;;;;11.15;66.16;98125.97;5040096;28;20436;-71
2022/02/03 00:25:32;;;;;;;12.23;6.80;;;;;;;11.15;65.24;98112.84;5031643;28;20423;-70
2022/02/03 00:31:31;;;;;;;11.90;7.40;;;;;;;11.19;65.22;98112.44;5052453;28;20524;-70
2022/02/03 00:33:29;;;;;;;7.70;5.90;;;;;;;11.13;65.29;98109.53;5037357;28;20549;-70
2022/02/03 00:50:12;;;;;;;7.20;6.40;;;;;;;11.22;65.68;98106.09;5052652;28;20434;-70
2022/02/03 00:52:39;;;;;;;7.10;5.97;;;;;;;11.25;65.84;98110.22;5034126;28;20459;-70
2022/02/03 00:55:06;;;;;;;6.20;5.17;;;;;;;11.25;65.73;98107.59;5046157;28;20429;-70
2022/02/03 00:57:52;;;;;;;9.47;6.37;;;;;;;11.27;66.07;98109.16;5052462;28;20430;-70
2022/02/03 01:00:20;;;;;;;11.97;9.70;;;;;;;11.32;66.18;98108.75;5067869;28;20433;-70
2022/02/03 01:03:04;;;;;;;9.60;8.20;;;;;;;11.34;66.18;98104.19;5030406;28;20432;-70
2022/02/03 01:05:30;;;;;;;11.83;8.70;;;;;;;11.35;65.80;98114.53;5065392;28;20449;-70
2022/02/03 01:08:00;;;;;;;12.83;10.23;;;;;;;11.35;65.91;98105.81;5052571;28;20449;-70
2022/02/03 01:10:31;;;;;;;12.80;7.00;;;;;;;11.34;65.97;98105.00;5067264;28;20252;-70
2022/02/03 01:13:12;;;;;;;6.73;6.03;;;;;;;11.37;65.64;98111.78;5034458;28;20485;-70
2022/02/03 01:15:48;;;;;;;9.20;7.13;;;;;;;11.34;65.81;98107.63;5050084;28;20426;-70
2022/02/03 01:18:45;;;;;;;7.00;6.10;;;;;;;11.34;65.84;98104.19;5047290;28;20418;-70
2022/02/03 01:53:49;;;;;;;6.90;6.30;;;;;;;11.48;65.95;98085.41;5051565;28;20888;-70
2022/02/03 01:56:17;;;;;;;8.63;6.00;;;;;;;11.48;65.75;98082.78;5051618;28;20497;-70
2022/02/03 01:58:45;;;;;;;5.93;5.33;;;;;;;11.48;65.83;98074.91;5047187;28;20191;-70
2022/02/03 02:01:26;;;;;;;6.70;5.93;;;;;;;11.48;65.26;98072.28;5046743;28;20779;-70
2022/02/03 02:04:07;;;;;;;6.60;5.20;;;;;;;11.41;65.16;98072.94;5031980;28;20428;-70
2022/02/03 02:07:00;;;;;;;7.10;6.40;;;;;;;11.33;65.59;98073.66;5030095;28;20924;-70
2022/02/03 02:09:46;;;;;;;8.33;5.90;;;;;;;11.29;65.83;98077.50;5047525;28;20553;-69
2022/02/03 02:12:29;;;;;;;7.03;6.30;;;;;;;11.29;66.09;98074.88;5051221;28;20980;-70
2022/02/03 02:38:10;;;;;;;7.00;6.40;;;;;;;11.24;65.78;98066.56;5031672;28;20812;-69
2022/02/03 02:41:05;;;;;;;6.90;6.17;;;;;;;11.26;65.99;98062.03;5029959;28;20960;-70
2022/02/03 02:43:51;;;;;;;7.73;6.87;;;;;;;11.29;65.64;98054.72;5031290;28;20427;-70
2022/02/03 02:46:36;;;;;;;7.63;6.30;;;;;;;11.27;65.54;98061.06;5031493;28;20481;-69
2022/02/03 02:49:49;;;;;;;6.00;5.40;;;;;;;11.30;65.80;98055.56;5030243;28;20914;-70
2022/02/03 02:52:24;;;;;;;7.87;7.07;;;;;;;11.34;65.52;98049.91;4975607;28;20460;-69
2022/02/03 02:55:13;;;;;;;8.60;7.07;;;;;;;11.34;65.69;98054.31;5032589;28;20513;-70
2022/02/03 03:03:51;;;;;;;8.73;5.80;;;;;;;11.32;65.18;98043.13;5034590;28;20417;-70
2022/02/03 03:36:53;;;;;;;5.43;4.90;;;;;;;11.08;66.05;98020.72;4984583;28;20518;-70
2022/02/03 03:39:26;;;;;;;5.40;4.90;;;;;;;11.07;65.92;98024.31;4988141;28;20432;-70
2022/02/03 03:41:55;;;;;;;5.90;5.30;;;;;;;11.07;65.83;98022.50;4996007;28;20492;-70
2022/02/03 03:44:22;;;;;;;5.77;5.27;;;;;;;11.08;65.88;98010.22;4988718;28;21011;-70
2022/02/03 03:46:50;;;;;;;9.83;5.17;;;;;;;11.04;65.87;98009.66;4984103;28;20438;-70
2022/02/03 03:49:27;;;;;;;5.73;5.17;;;;;;;11.00;65.90;98007.44;4992035;28;20428;-70
2022/02/03 03:52:01;;;;;;;5.13;4.63;;;;;;;10.98;65.93;98019.84;4964217;28;20516;-69
2022/02/03 03:54:45;;;;;;;7.07;5.77;;;;;;;11.00;66.10;98010.06;4967829;28;20471;-69
2022/02/03 04:37:22;;;;;;;7.00;5.90;;;;;;;10.94;66.36;97995.69;5016254;28;20902;-70
2022/02/03 04:43:25;;;;;;;26.77;18.03;;;;;;;10.94;65.45;97971.28;5026800;28;20453;-70
2022/02/03 05:06:32;;;;;;;15.63;10.80;;;;;;;10.78;65.13;97958.66;5067460;28;20441;-70
2022/02/03 05:12:31;;;;;;;16.10;13.13;;;;;;;10.67;64.93;97952.59;5067137;28;20459;-70
2022/02/03 05:19:08;;;;;;;14.03;11.63;;;;;;;10.66;65.05;97947.47;5049501;28;20418;-70
2022/02/03 05:33:30;;;;;;;8.63;7.73;;;;;;;10.70;64.95;97947.06;5051367;28;20835;-70
2022/02/03 05:44:55;;;;;;;8.67;7.77;;;;;;;10.55;64.96;97930.06;5033803;28;20441;-70
2022/02/03 06:06:22;;;;;;;8.63;7.70;;;;;;;10.44;64.66;97917.91;5047691;28;20968;-70
2022/02/03 06:14:28;;;;;;;9.80;7.40;;;;;;;10.42;64.57;97917.22;4972789;28;20690;-70
2022/02/03 06:27:37;;;;;;;9.17;7.17;;;;;;;10.44;64.71;97910.88;4968399;28;20468;-70
2022/02/03 06:30:05;;;;;;;8.03;7.00;;;;;;;10.45;64.42;97909.09;4969591;28;20499;-70
2022/02/03 06:32:31;;;;;;;7.17;6.33;;;;;;;10.47;64.86;97906.31;4968885;28;20468;-70
2022/02/03 06:34:56;;;;;;;9.63;6.93;;;;;;;10.54;64.85;97908.28;4985399;28;20835;-70
2022/02/03 06:37:22;;;;;;;9.20;7.20;;;;;;;10.59;64.85;97900.81;4969603;28;20267;-70
2022/02/03 06:39:48;;;;;;;9.87;8.03;;;;;;;10.60;64.87;97896.44;4968802;28;20209;-69
2022/02/03 06:42:14;;;;;;;10.10;8.00;;;;;;;10.58;65.05;97893.09;4968087;28;20260;-70
2022/02/03 06:44:44;;;;;;;9.63;8.40;;;;;;;10.58;64.87;97890.47;4956311;28;20555;-70
2022/02/03 06:52:40;;;;;;;15.10;8.63;;;;;;;10.63;64.57;97890.91;5029932;28;20955;-70
2022/02/03 06:55:14;;;;;;;8.93;7.33;;;;;;;10.65;64.66;97894.19;5013131;28;20183;-70
2022/02/03 06:57:51;;;;;;;10.20;6.80;;;;;;;10.68;65.04;97893.13;5038897;28;21044;-69
2022/02/03 07:00:22;;;;;;;8.27;7.17;;;;;;;10.76;64.84;97898.50;5038685;28;20446;-70
2022/02/03 07:02:50;;;;;;;6.53;5.67;;;;;;;10.79;64.95;97897.41;5033670;28;20422;-70
2022/02/03 07:05:16;;;;;;;7.40;6.07;;;;;;;10.75;65.05;97894.22;5035285;28;20427;-70
2022/02/03 07:07:42;;;;;;;7.90;5.93;;;;;;;10.78;64.92;97901.81;5032647;28;20451;-72
2022/02/03 07:10:09;;;;;;;7.67;6.63;;;;;;;10.78;65.09;97909.69;5041773;28;20301;-71
2022/02/03 07:12:35;;;;;;;7.77;6.73;;;;;;;10.78;65.23;97907.06;5031914;28;20218;-71
2022/02/03 07:15:02;;;;;;;8.80;7.40;;;;;;;10.76;65.67;97906.38;5030773;28;20426;-70
2022/02/03 07:17:28;;;;;;;7.03;6.33;;;;;;;10.82;65.59;97905.00;5046374;28;20208;-70
2022/02/03 07:20:00;;;;;;;8.47;6.60;;;;;;;10.82;65.76;97899.75;5037586;28;20877;-70
2022/02/03 07:22:25;;;;;;;10.07;8.40;;;;;;;10.90;65.72;97900.72;5012816;28;20602;-70
2022/02/03 07:24:52;;;;;;;9.97;7.07;;;;;;;10.93;65.66;97896.19;5030245;28;20436;-71
2022/02/03 07:27:20;;;;;;;8.33;6.83;;;;;;;10.98;65.54;97897.44;5029674;28;20195;-71
2022/02/03 07:29:46;;;;;;;9.73;6.57;;;;;;;11.02;65.28;97897.97;5029679;28;20446;-70
2022/02/03 07:32:12;;;;;;;7.13;6.30;;;;;;;11.05;65.40;97895.06;5030485;28;20430;-70
2022/02/03 07:34:39;;;;;;;8.80;6.57;;;;;;;11.07;65.33;97896.59;5030500;28;20188;-70
2022/02/03 07:37:04;;;;;;;6.57;5.87;;;;;;;11.13;65.29;97886.53;5030534;28;20235;-70
2022/02/03 07:39:30;;;;;;;11.20;9.30;;;;;;;11.13;64.87;97879.47;5041525;28;20532;-70
2022/02/03 07:41:56;;;;;;;14.53;10.70;;;;;;;11.09;64.62;97872.81;5049635;28;20662;-71
2022/02/03 07:44:21;;;;;;;16.07;11.10;;;;;;;11.04;64.35;97875.88;5015577;28;20206;-73
2022/02/03 07:46:47;;;;;;;20.53;9.87;;;;;;;11.01;64.55;97873.56;5020462;28;20187;-73
2022/02/03 07:49:12;;;;;;;9.93;8.00;;;;;;;11.02;64.53;97869.13;5033963;28;20184;-72
2022/02/03 07:51:37;;;;;;;10.97;8.37;;;;;;;10.98;64.71;97858.09;5032868;28;20208;-72
2022/02/03 07:54:04;;;;;;;16.30;11.50;;;;;;;11.01;65.27;97852.56;5033836;28;20770;-72
2022/02/03 07:56:31;;;;;;;16.77;12.43;;;;;;;10.98;65.37;97849.38;5041880;28;20180;-71
2022/02/03 07:58:56;;;;;;;15.13;11.27;;;;;;;11.02;65.16;97850.75;5048872;28;20450;-70
2022/02/03 08:01:22;;;;;;;14.10;10.93;;;;;;;10.96;65.42;97854.75;5033544;28;20969;-71
2022/02/03 08:03:48;;;;;;;9.93;8.53;;;;;;;11.02;65.60;97858.63;5033165;28;20186;-70
2022/02/03 08:06:20;;;;;;;22.00;9.37;;;;;;;11.08;65.70;97847.59;5032154;28;20215;-70
2022/02/03 08:08:50;;;;;;;13.77;10.60;;;;;;;11.10;65.47;97834.31;5032318;28;20200;-69
2022/02/03 08:11:22;;;;;;;14.00;10.53;;;;;;;11.09;65.26;97814.31;5033553;28;20451;-70
2022/02/03 08:14:07;;;;;;;14.48;10.30;;;;;;;11.04;65.58;97805.06;5041411;28;20433;-70
2022/02/03 08:16:40;;;;;;;12.70;10.00;;;;;;;11.11;65.70;97805.31;5035538;28;20265;-70
2022/02/03 08:19:16;;;;;;;11.40;9.37;;;;;;;11.15;65.49;97803.25;5031381;28;20442;-72
2022/02/03 08:21:46;;;;;;;25.27;15.40;;;;;;;11.15;65.59;97817.19;5032429;28;20548;-71
2022/02/03 08:29:16;;;;;;;13.97;9.97;;;;;;;11.32;65.74;97812.19;5040732;28;20514;-72
2022/02/03 08:31:51;;;;;;;11.00;9.23;;;;;;;11.41;65.49;97800.84;5032472;28;20575;-71
2022/02/03 08:34:25;;;;;;;7.23;6.53;;;;;;;11.51;65.13;97800.81;5032691;28;20524;-71
2022/02/03 08:36:50;;;;;;;6.70;6.00;;;;;;;11.70;64.42;97805.16;5036729;28;20418;-72
2022/02/03 08:39:19;;;;;;;5.97;5.47;;;;;;;11.68;63.91;97801.84;5036991;28;20522;-71
2022/02/03 08:41:45;;;;;;;6.20;5.60;;;;;;;11.83;64.07;97797.78;5041067;28;20609;-72
2022/02/03 08:44:10;;;;;;;10.47;6.27;;;;;;;11.91;63.60;97801.47;5032993;28;20568;-71
2022/02/03 08:46:36;;;;;;;7.60;6.40;;;;;;;11.95;63.76;97805.47;5048108;28;20184;-73
2022/02/03 08:49:05;;;;;;;6.80;5.87;;;;;;;12.12;63.59;97809.13;5032062;28;20191;-72
2022/02/03 08:51:31;;;;;;;6.20;5.60;;;;;;;12.23;63.07;97802.81;5032394;28;20274;-72
2022/02/03 08:54:03;;;;;;;7.40;6.27;;;;;;;12.37;63.02;97789.16;5033007;28;20953;-72
2022/02/03 08:56:43;;;;;;;5.40;4.90;;;;;;;12.36;62.25;97797.22;5015707;28;20191;-72
2022/02/03 09:33:49;;;;;;;6.50;4.10;;;;;;;12.54;58.37;97776.19;5040050;28;20430;-71
2022/02/03 09:35:29;;;;;;;4.50;3.47;;;;;;;12.58;58.16;97767.03;5031512;28;20435;-71
2022/02/03 09:40:36;;;;;;;4.07;3.33;;;;;;;12.95;57.54;97747.59;5039950;28;20893;-72
2022/02/03 09:56:32;;;;;;;2.97;2.67;;;;;;;13.04;56.28;97741.38;5031801;28;20800;-72
2022/02/03 10:01:36;;;;;;;3.80;2.77;;;;;;;13.14;54.79;97740.44;5031506;28;20240;-72
2022/02/03 10:04:15;;;;;;;2.67;2.47;;;;;;;12.88;55.19;97725.47;5013776;28;20860;-72
2022/02/03 10:06:58;;;;;;;6.43;3.50;;;;;;;12.92;55.11;97739.19;5044908;28;20528;-73
2022/02/03 10:09:37;;;;;;;2.60;2.40;;;;;;;12.80;54.96;97728.06;5030660;28;20480;-72
2022/02/03 10:12:03;;;;;;;2.80;2.60;;;;;;;12.76;55.56;97727.56;5031647;28;20541;-72
2022/02/03 10:14:37;;;;;;;2.50;2.30;;;;;;;13.09;55.79;97719.06;5013306;28;21051;-72
2022/02/03 10:17:04;;;;;;;2.77;2.50;;;;;;;13.61;54.95;97724.25;5032264;28;20270;-72
2022/02/03 10:19:35;;;;;;;4.63;2.83;;;;;;;13.67;54.33;97723.63;5046237;28;20441;-72
2022/02/03 10:22:02;;;;;;;2.40;2.20;;;;;;;13.72;53.11;97727.59;5013793;28;20840;-72
2022/02/03 10:24:36;;;;;;;2.90;2.30;;;;;;;13.60;53.01;97722.63;5063339;28;20506;-72
2022/02/03 10:27:02;;;;;;;2.60;2.40;;;;;;;13.90;52.71;97703.78;5030473;28;20434;-72
2022/02/03 10:29:33;;;;;;;2.00;1.90;;;;;;;14.20;52.30;97685.69;5030470;28;20427;-72
2022/02/03 10:31:59;;;;;;;2.90;2.60;;;;;;;14.04;52.25;97689.13;5032282;28;20183;-73
2022/02/03 10:34:29;;;;;;;2.20;1.97;;;;;;;13.98;52.40;97691.44;5031246;28;20492;-72
2022/02/03 10:37:09;;;;;;;2.40;2.20;;;;;;;13.87;52.17;97681.19;5013997;28;20204;-72
2022/02/03 10:48:12;;;;;;;2.20;2.00;;;;;;;13.95;52.12;97644.34;5031321;28;20269;-72
2022/02/03 10:53:04;;;;;;;1.90;1.80;;;;;;;14.05;51.76;97617.81;5039102;28;20982;-72
2022/02/03 11:01:06;;;;;;;2.20;1.90;;;;;;;14.49;50.87;97605.25;5027392;28;20288;-72
2022/02/03 11:09:14;;;;;;;2.20;2.00;;;;;;;15.35;50.13;97589.66;5035860;28;20447;-72
2022/02/03 11:11:43;;;;;;;1.80;1.70;;;;;;;15.45;49.47;97592.91;5031827;28;20450;-72
2022/02/03 11:14:09;;;;;;;1.97;1.83;;;;;;;15.34;48.92;97586.19;5033897;28;20530;-72
2022/02/03 11:16:39;;;;;;;1.90;1.70;;;;;;;15.44;49.27;97575.41;5040545;28;20446;-72
2022/02/03 11:19:09;;;;;;;1.97;1.80;;;;;;;15.40;49.43;97560.09;5042614;28;20479;-72
2022/02/03 11:21:35;;;;;;;2.00;1.90;;;;;;;15.37;49.69;97548.06;5033826;28;20442;-72
2022/02/03 11:24:09;;;;;;;3.53;1.80;;;;;;;15.07;49.34;97553.16;5034854;28;20429;-72
2022/02/03 11:27:02;;;;;;;1.83;1.73;;;;;;;14.88;49.75;97554.41;5034466;28;20179;-72
2022/02/03 11:32:11;;;;;;;3.90;2.60;;;;;;;14.61;49.89;97542.44;5035210;28;20452;-72
2022/02/03 11:59:09;;;;;;;1.63;1.50;;;;;;;14.28;50.96;97498.53;5033974;28;20930;-72
2022/02/03 12:04:55;;;;;;;1.87;1.77;;;;;;;14.38;51.01;97485.13;5041251;28;20177;-72
2022/02/03 12:21:03;;;;;;;2.03;1.77;;;;;;;14.67;49.75;97467.91;5017304;28;20442;-72
2022/02/03 12:26:17;;;;;;;1.90;1.67;;;;;;;14.38;50.20;97472.78;5047886;28;20429;-72
2022/02/03 12:29:05;;;;;;;2.13;1.93;;;;;;;14.50;49.60;97483.78;5015797;28;20542;-72
2022/02/03 12:37:06;;;;;;;1.90;1.70;;;;;;;14.47;50.41;97468.31;5039821;28;20568;-73
2022/02/03 12:39:46;;;;;;;5.23;2.20;;;;;;;14.24;50.98;97437.41;5031469;28;20824;-72
2022/02/03 12:44:46;;;;;;;1.70;1.60;;;;;;;14.56;51.05;97430.38;5031866;28;20478;-72
2022/02/03 12:47:13;;;;;;;2.13;1.60;;;;;;;14.56;50.67;97425.09;5015923;28;20467;-72
2022/02/03 12:49:39;;;;;;;2.30;1.70;;;;;;;14.18;51.60;97419.63;5031111;28;20605;-72
2022/02/03 12:52:24;;;;;;;2.17;1.80;;;;;;;14.36;50.96;97410.69;5031133;28;20427;-72
2022/02/03 12:54:49;;;;;;;1.50;1.40;;;;;;;14.67;50.78;97404.59;5023967;28;20437;-72
2022/02/03 12:57:35;;;;;;;3.17;2.00;;;;;;;14.77;50.72;97410.50;5033108;28;20932;-72
2022/02/03 13:00:04;;;;;;;2.30;2.00;;;;;;;14.74;50.35;97416.13;5031361;28;20199;-72
2022/02/03 13:02:30;;;;;;;2.10;1.83;;;;;;;14.78;50.20;97416.59;5032001;28;20445;-72
2022/02/03 13:04:55;;;;;;;2.30;2.00;;;;;;;14.78;50.21;97393.66;5014980;28;20423;-72
2022/02/03 13:07:24;;;;;;;1.90;1.70;;;;;;;14.58;50.62;97394.09;5047820;28;20190;-72
2022/02/03 13:09:54;;;;;;;3.43;1.80;;;;;;;14.40;51.03;97399.63;5032040;28;20215;-72
2022/02/03 13:12:30;;;;;;;3.00;1.67;;;;;;;14.40;51.06;97401.41;5032807;28;20425;-72
2022/02/03 13:14:58;;;;;;;1.60;1.50;;;;;;;14.46;50.95;97390.19;5032239;28;20422;-72
2022/02/03 13:17:31;;;;;;;1.80;1.70;;;;;;;14.22;51.59;97376.16;5033605;28;20430;-71
2022/02/03 13:20:19;;;;;;;2.30;1.90;;;;;;;14.09;51.75;97391.69;5045951;28;20451;-72
2022/02/03 13:22:56;;;;;;;3.83;2.42;;;;;;;13.91;52.18;97382.16;5032212;28;20421;-72
2022/02/03 13:25:30;;;;;;;3.23;2.07;;;;;;;13.69;52.78;97381.06;5032335;28;20172;-72
2022/02/03 13:28:01;;;;;;;2.90;2.40;;;;;;;13.92;52.42;97365.38;5032488;28;20422;-72
2022/02/03 13:33:06;;;;;;;2.10;1.90;;;;;;;13.94;52.64;97338.84;5031526;28;20503;-72
2022/02/03 13:35:49;;;;;;;2.10;1.90;;;;;;;14.03;52.82;97337.84;5012328;28;20886;-71
2022/02/03 13:38:29;;;;;;;2.13;1.93;;;;;;;14.15;52.58;97353.28;5039108;28;20274;-73
2022/02/03 13:41:18;;;;;;;4.37;2.07;;;;;;;14.29;52.54;97358.63;5024532;28;20463;-72
2022/02/03 13:43:44;;;;;;;2.37;2.10;;;;;;;14.41;52.46;97352.97;5031854;28;20438;-73
2022/02/03 13:46:11;;;;;;;2.40;1.97;;;;;;;14.54;52.08;97342.69;5032925;28;20458;-73
2022/02/03 13:48:38;;;;;;;2.50;2.20;;;;;;;14.62;51.98;97339.19;5031169;28;20915;-72
2022/02/03 13:51:08;;;;;;;2.30;1.83;;;;;;;14.62;51.67;97333.09;5039269;28;20454;-72
2022/02/03 13:53:50;;;;;;;3.37;2.00;;;;;;;14.63;51.53;97332.06;5031116;28;20480;-72
2022/02/03 14:21:27;;;;;;;2.50;2.30;;;;;;;14.47;52.29;97311.91;5035759;28;20577;-72
2022/02/03 14:29:16;;;;;;;4.43;2.53;;;;;;;14.56;52.67;97316.97;5025436;28;20465;-72
2022/02/03 14:31:43;;;;;;;4.03;2.40;;;;;;;14.29;52.67;97313.81;5031175;28;20961;-72
2022/02/03 14:34:14;;;;;;;2.50;2.30;;;;;;;14.29;52.54;97308.53;5013669;28;20580;-72
2022/02/03 14:36:42;;;;;;;2.47;2.27;;;;;;;14.19;52.58;97329.03;5030784;28;20433;-72
2022/02/03 14:39:17;;;;;;;2.50;2.27;;;;;;;14.18;53.19;97322.13;5030718;28;20462;-72
2022/02/03 14:41:46;;;;;;;3.73;2.40;;;;;;;14.10;53.35;97316.91;5031031;28;20441;-72
2022/02/03 14:44:14;;;;;;;4.70;3.53;;;;;;;13.98;53.74;97317.28;5045143;28;20480;-72
2022/02/03 14:46:40;;;;;;;4.20;2.83;;;;;;;13.90;54.02;97319.94;5045522;28;20439;-72
2022/02/03 14:49:06;;;;;;;3.67;2.10;;;;;;;13.93;54.12;97324.03;5030003;28;20486;-72
2022/02/03 14:51:43;;;;;;;2.50;2.20;;;;;;;13.93;54.10;97309.06;5030876;28;20531;-73
2022/02/03 14:58:01;;;;;;;2.87;2.17;;;;;;;13.60;54.70;97311.81;5030936;28;20242;-73
2022/02/03 14:59:38;;;;;;;5.40;2.53;;;;;;;13.66;54.56;97303.22;5030234;28;20467;-73
2022/02/03 15:02:07;;;;;;;4.47;2.50;;;;;;;13.59;55.03;97296.16;5036223;28;20537;-72
2022/02/03 15:04:34;;;;;;;4.80;2.37;;;;;;;13.62;54.63;97287.94;5032720;28;20184;-73
2022/02/03 15:07:02;;;;;;;2.60;2.40;;;;;;;13.58;55.15;97294.50;5039331;28;20432;-73
2022/02/03 15:12:10;;;;;;;2.30;1.90;;;;;;;13.57;55.10;97267.38;5036104;28;20437;-72
2022/02/03 15:14:37;;;;;;;3.87;2.50;;;;;;;13.67;55.23;97291.69;5046378;28;20467;-72
2022/02/03 15:17:03;;;;;;;2.53;2.33;;;;;;;13.72;55.09;97293.00;5032152;28;20533;-72
2022/02/03 15:19:28;;;;;;;2.40;2.20;;;;;;;13.76;55.13;97299.56;5045437;28;20524;-72
2022/02/03 15:21:54;;;;;;;3.70;2.20;;;;;;;13.79;55.13;97299.22;5030657;28;20794;-73
2022/02/03 15:24:19;;;;;;;2.23;1.93;;;;;;;13.78;55.19;97295.78;5031146;28;20258;-73
2022/02/03 15:26:45;;;;;;;4.57;2.60;;;;;;;13.74;55.08;97289.22;5031341;28;20190;-73
2022/02/03 15:29:12;;;;;;;3.67;2.60;;;;;;;13.73;55.10;97292.81;5030526;28;20188;-73
2022/02/03 15:31:38;;;;;;;3.43;2.80;;;;;;;13.73;55.29;97295.47;5038809;28;20204;-73
2022/02/03 15:34:07;;;;;;;5.43;2.60;;;;;;;13.71;55.04;97288.72;5030736;28;20469;-73
2022/02/03 15:36:35;;;;;;;5.37;3.93;;;;;;;13.70;55.46;97293.16;5038778;28;20234;-72
2022/02/03 15:39:06;;;;;;;3.00;2.60;;;;;;;13.67;55.36;97294.34;5012763;28;20837;-72
2022/02/03 15:41:32;;;;;;;7.07;2.57;;;;;;;13.69;55.43;97298.59;5030438;28;20525;-72
2022/02/03 15:44:00;;;;;;;3.77;2.93;;;;;;;13.66;55.64;97292.69;5030854;28;20490;-73
2022/02/03 15:46:26;;;;;;;4.10;3.23;;;;;;;13.59;55.52;97299.63;5040110;28;20188;-73
2022/02/03 15:57:20;;;;;;;2.83;2.50;;;;;;;13.51;55.81;97294.38;5045532;28;20426;-73
2022/02/03 16:13:28;;;;;;;6.90;4.10;;;;;;;13.21;55.72;97299.34;5040631;28;20960;-72
2022/02/03 16:18:20;;;;;;;9.37;4.27;;;;;;;13.10;56.04;97276.00;5042300;28;20439;-72
2022/02/03 16:21:03;;;;;;;14.43;5.13;;;;;;;13.06;56.60;97283.41;5033228;28;20615;-72
2022/02/03 16:52:55;;;;;;;5.50;4.30;;;;;;;12.68;57.17;97283.91;5041304;28;20462;-72
2022/02/03 16:55:24;;;;;;;5.60;4.10;;;;;;;12.66;57.37;97285.88;5032813;28;20506;-72
2022/02/03 16:57:52;;;;;;;3.93;3.60;;;;;;;12.64;57.08;97285.22;5032704;28;20933;-73
2022/02/03 17:00:18;;;;;;;5.83;3.20;;;;;;;12.64;57.00;97284.41;5041071;28;20505;-73
2022/02/03 17:02:44;;;;;;;4.90;4.10;;;;;;;12.60;57.15;97270.78;5039099;28;20423;-74
2022/02/03 17:05:10;;;;;;;5.50;3.43;;;;;;;12.57;57.42;97284.25;5033131;28;20430;-73
2022/02/03 17:07:36;;;;;;;4.83;3.83;;;;;;;12.55;57.75;97288.84;5032652;28;20188;-72
2022/02/03 17:10:03;;;;;;;4.30;3.60;;;;;;;12.56;57.62;97285.22;5037065;28;20457;-73
2022/02/03 17:12:29;;;;;;;6.07;4.17;;;;;;;12.53;57.57;97285.53;5050460;28;20802;-73
2022/02/03 17:14:54;;;;;;;9.53;5.70;;;;;;;12.46;57.66;97263.53;5052646;28;20437;-72
2022/02/03 17:17:20;;;;;;;13.23;8.90;;;;;;;12.46;58.10;97284.56;5037373;28;20319;-73
2022/02/03 17:19:47;;;;;;;14.47;11.07;;;;;;;12.44;58.21;97282.91;5038826;28;20237;-72
2022/02/03 17:22:14;;;;;;;13.57;9.93;;;;;;;12.40;58.80;97273.69;5033357;28;20514;-70
2022/02/03 17:24:46;;;;;;;10.53;8.43;;;;;;;12.33;58.83;97275.34;5033246;28;20450;-70
2022/02/03 17:27:30;;;;;;;9.77;7.13;;;;;;;12.17;59.12;97268.22;5055113;28;20514;-72
2022/02/03 17:44:57;;;;;;;7.93;4.83;;;;;;;12.08;59.63;97288.41;5032526;28;20790;-71
2022/02/03 18:10:13;;;;;;;17.70;13.87;;;;;;;11.63;61.13;97307.88;5036646;28;20779;-71
2022/02/03 18:27:01;;;;;;;19.30;10.90;;;;;;;11.59;60.95;97309.19;4987247;28;20442;-70
2022/02/03 18:50:31;;;;;;;25.77;12.80;;;;;;;11.17;61.18;97287.97;5035576;28;20441;-70
2022/02/03 18:55:33;;;;;;;20.30;11.00;;;;;;;11.18;61.25;97289.59;5038644;28;20472;-70
2022/02/03 18:58:39;;;;;;;20.60;11.17;;;;;;;11.18;61.29;97286.16;5039910;28;20824;-71
2022/02/03 19:09:32;;;;;;;12.87;7.87;;;;;;;11.17;61.46;97272.22;5039282;28;20861;-71
2022/02/03 20:10:52;;;;;;;18.80;11.53;;;;;;;10.32;60.69;97264.78;5025856;28;20249;-70
2022/02/03 20:13:18;;;;;;;20.57;11.77;;;;;;;10.27;61.25;97267.06;5049175;28;20459;-70
2022/02/03 20:15:45;;;;;;;13.27;8.63;;;;;;;10.27;61.42;97275.72;5033011;28;20421;-70
2022/02/03 20:18:12;;;;;;;17.90;10.53;;;;;;;10.28;61.78;97277.38;5034308;28;20289;-70
2022/02/03 20:20:42;;;;;;;17.80;10.57;;;;;;;10.29;61.52;97267.69;5035053;28;20438;-70
2022/02/03 20:23:11;;;;;;;16.87;9.97;;;;;;;10.35;61.79;97267.13;5039376;28;20503;-72
2022/02/03 20:25:37;;;;;;;16.23;10.00;;;;;;;10.29;61.57;97265.94;5033284;28;20557;-70
2022/02/03 20:28:06;;;;;;;20.53;10.20;;;;;;;10.30;61.54;97259.72;5033533;28;20520;-70
2022/02/03 20:30:32;;;;;;;27.13;13.50;;;;;;;10.26;61.53;97255.75;5033999;28;20446;-70
2022/02/03 20:32:58;;;;;;;23.40;14.20;;;;;;;10.18;61.82;97268.75;5040224;28;20458;-71
2022/02/03 20:35:24;;;;;;;20.23;11.80;;;;;;;10.22;61.76;97259.63;5048121;28;20521;-71
2022/02/03 20:37:49;;;;;;;19.67;12.60;;;;;;;10.23;61.36;97266.50;5033398;28;20176;-70
2022/02/03 20:40:15;;;;;;;18.60;11.37;;;;;;;10.22;61.27;97271.91;5032814;28;20196;-70
2022/02/03 20:42:41;;;;;;;19.07;11.17;;;;;;;10.16;61.34;97268.09;5015305;28;20184;-72
2022/02/03 20:45:06;;;;;;;23.47;13.30;;;;;;;10.14;61.36;97267.41;5040691;28;20562;-70
2022/02/03 20:47:32;;;;;;;31.27;14.60;;;;;;;10.13;61.42;97261.34;5033503;28;20194;-70
2022/02/03 20:49:59;;;;;;;27.27;14.87;;;;;;;10.11;61.73;97262.44;5032728;28;20434;-71
2022/02/03 20:52:25;;;;;;;22.47;12.97;;;;;;;10.11;61.98;97262.44;5032748;28;20265;-71
2022/02/03 20:54:50;;;;;;;22.00;11.80;;;;;;;10.12;61.76;97274.56;5033134;28;20548;-71
2022/02/03 20:57:16;;;;;;;22.97;13.60;;;;;;;10.06;61.96;97262.91;5032871;28;20206;-70
2022/02/03 21:02:39;;;;;;;13.20;8.97;;;;;;;9.88;61.68;97275.16;5032286;28;20186;-71
2022/02/03 21:05:07;;;;;;;14.47;9.23;;;;;;;9.87;61.47;97276.91;5048339;28;20429;-71
2022/02/03 21:07:33;;;;;;;13.47;9.13;;;;;;;9.88;61.95;97286.44;5040899;28;20924;-71
2022/02/03 21:10:01;;;;;;;14.17;8.70;;;;;;;9.90;61.62;97281.88;5014226;28;20454;-70
2022/02/03 21:12:29;;;;;;;17.30;9.20;;;;;;;9.88;62.00;97275.97;5047845;28;20426;-69
2022/02/03 21:14:54;;;;;;;10.53;8.20;;;;;;;9.85;61.61;97273.63;5040385;28;20901;-70
2022/02/03 21:17:26;;;;;;;16.17;10.27;;;;;;;9.87;61.64;97265.66;5033951;28;20425;-71
2022/02/03 21:19:52;;;;;;;13.50;10.23;;;;;;;9.78;61.77;97267.34;5024669;28;20285;-69
2022/02/03 21:22:17;;;;;;;14.13;9.80;;;;;;;9.72;61.68;97262.66;5015009;28;20486;-71
2022/02/03 21:24:43;;;;;;;15.50;9.90;;;;;;;9.62;61.91;97266.16;5047208;28;20186;-71
2022/02/03 21:27:16;;;;;;;18.60;10.70;;;;;;;9.61;61.91;97261.91;5032457;28;20193;-70
2022/02/03 21:29:42;;;;;;;17.93;11.20;;;;;;;9.62;62.47;97254.88;5031679;28;20516;-70
2022/02/03 21:32:08;;;;;;;22.73;12.20;;;;;;;9.63;62.79;97265.19;5032087;28;20420;-70
2022/02/03 21:34:33;;;;;;;27.27;13.70;;;;;;;9.70;62.66;97264.63;5032050;28;20463;-70
2022/02/03 21:36:59;;;;;;;22.37;12.40;;;;;;;9.71;63.23;97261.84;5040462;28;20545;-70
2022/02/03 21:39:24;;;;;;;25.23;13.50;;;;;;;9.76;63.20;97261.41;5031563;28;20229;-69
2022/02/03 21:41:50;;;;;;;28.43;13.40;;;;;;;9.77;63.07;97249.97;5047279;28;20701;-70
2022/02/03 21:44:15;;;;;;;23.43;12.97;;;;;;;9.77;63.31;97257.84;5032138;28;20175;-70
2022/02/03 21:46:44;;;;;;;19.63;12.87;;;;;;;9.78;63.25;97257.69;5036133;28;20184;-70
2022/02/03 21:49:10;;;;;;;26.67;13.40;;;;;;;9.79;63.02;97251.47;5038144;28;20186;-70
2022/02/03 21:51:41;;;;;;;25.60;11.67;;;;;;;9.81;62.88;97254.78;5033323;28;20446;-70
2022/02/03 21:54:08;;;;;;;21.10;11.63;;;;;;;9.80;62.43;97254.94;5046745;28;20211;-70
2022/02/03 21:56:34;;;;;;;19.27;11.50;;;;;;;9.83;62.19;97255.47;5046377;28;20433;-70
2022/02/03 21:59:06;;;;;;;15.87;11.00;;;;;;;9.82;61.95;97253.00;5046868;28;20430;-70
2022/02/03 22:01:32;;;;;;;20.60;11.13;;;;;;;9.77;61.79;97249.97;5031368;28;20805;-70
2022/02/03 22:03:57;;;;;;;23.80;12.70;;;;;;;9.73;61.88;97259.94;5014223;28;20425;-70
2022/02/03 22:06:23;;;;;;;34.70;20.07;;;;;;;9.70;61.65;97262.00;5038695;28;20190;-70
2022/02/03 22:08:48;;;;;;;41.00;21.20;;;;;;;9.64;61.91;97255.56;5013576;28;20276;-70
2022/02/03 22:11:14;;;;;;;35.00;21.23;;;;;;;9.63;61.55;97257.34;5013898;28;20571;-70
2022/02/03 22:13:40;;;;;;;34.87;21.10;;;;;;;9.61;61.45;97251.44;5031352;28;20346;-70
2022/02/03 22:16:09;;;;;;;22.07;13.93;;;;;;;9.58;61.67;97261.38;4998012;28;20180;-71
2022/02/03 22:18:35;;;;;;;18.60;12.77;;;;;;;9.56;62.11;97251.06;5031122;28;20421;-71